sensor_id;sensor_type;location;lat;lon;timestamp;temperature;humidity
11387;DHT22;5748;53.102;8.456;2023-10-13T00:01:55;18.70;68.30
11387;DHT22;5748;53.102;8.456;2023-10-13T00:04:24;18.70;68.50
11387;DHT22;5748;53.102;8.456;2023-10-13T00:06:51;18.70;68.50
11387;DHT22;5748;53.102;8.456;2023-10-13T00:09:19;18.80;68.60
11387;DHT22;5748;53.102;8.456;2023-10-13T00:11:50;18.80;68.70
11387;DHT22;5748;53.102;8.456;2023-10-13T00:14:18;18.80;68.80
11387;DHT22;5748;53.102;8.456;2023-10-13T00:16:46;18.80;68.90
11387;DHT22;5748;53.102;8.456;2023-10-13T00:19:28;18.90;69.00
11387;DHT22;5748;53.102;8.456;2023-10-13T00:22:03;18.90;68.90
11387;DHT22;5748;53.102;8.456;2023-10-13T00:24:35;18.90;68.90
11387;DHT22;5748;53.102;8.456;2023-10-13T00:27:08;19.00;69.10
11387;DHT22;5748;53.102;8.456;2023-10-13T00:29:50;19.00;69.20
11387;DHT22;5748;53.102;8.456;2023-10-13T00:32:29;19.00;69.20
11387;DHT22;5748;53.102;8.456;2023-10-13T00:34:59;19.00;69.10
11387;DHT22;5748;53.102;8.456;2023-10-13T00:37:30;19.10;69.30
11387;DHT22;5748;53.102;8.456;2023-10-13T00:40:07;19.10;69.30
11387;DHT22;5748;53.102;8.456;2023-10-13T00:42:52;19.20;69.40
11387;DHT22;5748;53.102;8.456;2023-10-13T00:45:19;19.20;69.30
11387;DHT22;5748;53.102;8.456;2023-10-13T00:47:46;19.20;69.30
11387;DHT22;5748;53.102;8.456;2023-10-13T00:50:17;19.20;69.70
11387;DHT22;5748;53.102;8.456;2023-10-13T00:52:44;19.30;69.80
11387;DHT22;5748;53.102;8.456;2023-10-13T00:55:16;19.30;69.30
11387;DHT22;5748;53.102;8.456;2023-10-13T00:57:43;19.30;69.60
11387;DHT22;5748;53.102;8.456;2023-10-13T01:00:12;19.30;69.70
11387;DHT22;5748;53.102;8.456;2023-10-13T01:02:44;19.30;69.70
11387;DHT22;5748;53.102;8.456;2023-10-13T01:05:21;19.40;69.60
11387;DHT22;5748;53.102;8.456;2023-10-13T01:07:49;19.40;69.70
11387;DHT22;5748;53.102;8.456;2023-10-13T01:10:18;19.40;69.70
11387;DHT22;5748;53.102;8.456;2023-10-13T01:12:45;19.50;69.90
11387;DHT22;5748;53.102;8.456;2023-10-13T01:15:13;19.50;69.50
11387;DHT22;5748;53.102;8.456;2023-10-13T01:17:43;19.50;69.90
11387;DHT22;5748;53.102;8.456;2023-10-13T01:20:12;19.50;69.90
11387;DHT22;5748;53.102;8.456;2023-10-13T01:22:46;19.50;70.00
11387;DHT22;5748;53.102;8.456;2023-10-13T01:25:23;19.60;70.40
11387;DHT22;5748;53.102;8.456;2023-10-13T01:27:54;19.60;70.30
11387;DHT22;5748;53.102;8.456;2023-10-13T01:30:20;19.60;70.10
11387;DHT22;5748;53.102;8.456;2023-10-13T01:32:50;19.60;70.20
11387;DHT22;5748;53.102;8.456;2023-10-13T01:35:17;19.70;70.10
11387;DHT22;5748;53.102;8.456;2023-10-13T01:37:50;19.70;70.20
11387;DHT22;5748;53.102;8.456;2023-10-13T01:40:16;19.70;70.20
11387;DHT22;5748;53.102;8.456;2023-10-13T01:42:46;19.70;70.10
11387;DHT22;5748;53.102;8.456;2023-10-13T01:45:12;19.70;70.00
11387;DHT22;5748;53.102;8.456;2023-10-13T01:47:40;19.70;70.50
11387;DHT22;5748;53.102;8.456;2023-10-13T01:50:07;19.70;70.10
11387;DHT22;5748;53.102;8.456;2023-10-13T01:52:40;19.70;70.40
11387;DHT22;5748;53.102;8.456;2023-10-13T01:55:08;19.80;70.00
11387;DHT22;5748;53.102;8.456;2023-10-13T01:57:37;19.80;70.60
11387;DHT22;5748;53.102;8.456;2023-10-13T02:00:08;19.80;70.60
11387;DHT22;5748;53.102;8.456;2023-10-13T02:02:44;19.80;70.80
11387;DHT22;5748;53.102;8.456;2023-10-13T02:05:11;19.90;70.30
11387;DHT22;5748;53.102;8.456;2023-10-13T02:07:37;19.80;70.70
11387;DHT22;5748;53.102;8.456;2023-10-13T02:10:05;19.90;70.80
11387;DHT22;5748;53.102;8.456;2023-10-13T02:12:31;19.90;70.80
11387;DHT22;5748;53.102;8.456;2023-10-13T02:17:31;19.90;70.20
11387;DHT22;5748;53.102;8.456;2023-10-13T02:20:06;19.90;70.90
11387;DHT22;5748;53.102;8.456;2023-10-13T02:22:33;20.00;71.00
11387;DHT22;5748;53.102;8.456;2023-10-13T02:27:33;20.00;70.30
11387;DHT22;5748;53.102;8.456;2023-10-13T02:30:07;20.00;71.10
11387;DHT22;5748;53.102;8.456;2023-10-13T02:32:40;20.00;71.20
11387;DHT22;5748;53.102;8.456;2023-10-13T02:35:09;20.10;70.70
11387;DHT22;5748;53.102;8.456;2023-10-13T02:37:41;20.10;71.30
11387;DHT22;5748;53.102;8.456;2023-10-13T02:40:10;20.10;71.20
11387;DHT22;5748;53.102;8.456;2023-10-13T02:42:37;20.10;71.30
11387;DHT22;5748;53.102;8.456;2023-10-13T02:45:06;20.20;70.70
11387;DHT22;5748;53.102;8.456;2023-10-13T02:47:34;20.10;71.30
11387;DHT22;5748;53.102;8.456;2023-10-13T02:50:01;20.20;71.30
11387;DHT22;5748;53.102;8.456;2023-10-13T02:52:37;20.20;71.30
11387;DHT22;5748;53.102;8.456;2023-10-13T02:55:07;20.20;70.90
11387;DHT22;5748;53.102;8.456;2023-10-13T02:57:35;20.20;71.50
11387;DHT22;5748;53.102;8.456;2023-10-13T03:00:01;20.20;71.50
11387;DHT22;5748;53.102;8.456;2023-10-13T03:02:37;20.20;71.60
11387;DHT22;5748;53.102;8.456;2023-10-13T03:05:11;20.30;71.10
11387;DHT22;5748;53.102;8.456;2023-10-13T03:07:39;20.30;71.60
11387;DHT22;5748;53.102;8.456;2023-10-13T03:10:09;20.30;71.60
11387;DHT22;5748;53.102;8.456;2023-10-13T03:12:37;20.30;71.60
11387;DHT22;5748;53.102;8.456;2023-10-13T03:15:04;20.40;71.00
11387;DHT22;5748;53.102;8.456;2023-10-13T03:17:40;20.40;71.60
11387;DHT22;5748;53.102;8.456;2023-10-13T03:20:11;20.40;72.30
11387;DHT22;5748;53.102;8.456;2023-10-13T03:22:40;20.40;71.80
11387;DHT22;5748;53.102;8.456;2023-10-13T03:25:06;20.40;71.20
11387;DHT22;5748;53.102;8.456;2023-10-13T03:27:35;20.40;71.70
11387;DHT22;5748;53.102;8.456;2023-10-13T03:30:06;20.40;71.80
11387;DHT22;5748;53.102;8.456;2023-10-13T03:32:40;20.40;71.80
11387;DHT22;5748;53.102;8.456;2023-10-13T03:35:12;20.50;71.40
11387;DHT22;5748;53.102;8.456;2023-10-13T03:37:42;20.50;72.00
11387;DHT22;5748;53.102;8.456;2023-10-13T03:40:11;20.50;71.80
11387;DHT22;5748;53.102;8.456;2023-10-13T03:43:00;20.50;71.80
11387;DHT22;5748;53.102;8.456;2023-10-13T03:45:30;20.50;71.80
11387;DHT22;5748;53.102;8.456;2023-10-13T03:48:02;20.50;71.70
11387;DHT22;5748;53.102;8.456;2023-10-13T03:50:36;20.50;71.70
11387;DHT22;5748;53.102;8.456;2023-10-13T03:53:11;20.50;71.90
11387;DHT22;5748;53.102;8.456;2023-10-13T03:55:38;20.50;71.90
11387;DHT22;5748;53.102;8.456;2023-10-13T03:58:05;20.50;72.00
11387;DHT22;5748;53.102;8.456;2023-10-13T04:00:36;20.50;72.00
11387;DHT22;5748;53.102;8.456;2023-10-13T04:03:03;20.50;71.90
11387;DHT22;5748;53.102;8.456;2023-10-13T04:05:39;20.50;71.90
11387;DHT22;5748;53.102;8.456;2023-10-13T04:08:10;20.50;72.30
11387;DHT22;5748;53.102;8.456;2023-10-13T04:11:03;20.50;72.10
11387;DHT22;5748;53.102;8.456;2023-10-13T04:13:48;20.60;72.10
11387;DHT22;5748;53.102;8.456;2023-10-13T04:16:44;20.60;72.00
11387;DHT22;5748;53.102;8.456;2023-10-13T04:19:17;20.60;71.90
11387;DHT22;5748;53.102;8.456;2023-10-13T04:21:56;20.60;72.10
11387;DHT22;5748;53.102;8.456;2023-10-13T04:24:25;20.60;72.10
11387;DHT22;5748;53.102;8.456;2023-10-13T04:27:25;20.60;72.20
11387;DHT22;5748;53.102;8.456;2023-10-13T04:30:19;20.60;72.10
11387;DHT22;5748;53.102;8.456;2023-10-13T04:32:52;20.60;72.00
11387;DHT22;5748;53.102;8.456;2023-10-13T04:35:52;20.60;72.00
11387;DHT22;5748;53.102;8.456;2023-10-13T04:38:25;20.60;72.00
11387;DHT22;5748;53.102;8.456;2023-10-13T04:40:59;20.50;72.10
11387;DHT22;5748;53.102;8.456;2023-10-13T04:43:27;20.60;72.20
11387;DHT22;5748;53.102;8.456;2023-10-13T04:46:19;20.60;72.30
11387;DHT22;5748;53.102;8.456;2023-10-13T04:48:50;20.60;72.20
11387;DHT22;5748;53.102;8.456;2023-10-13T04:51:25;20.60;72.30
11387;DHT22;5748;53.102;8.456;2023-10-13T04:54:16;20.60;72.10
11387;DHT22;5748;53.102;8.456;2023-10-13T04:56:58;20.60;72.20
11387;DHT22;5748;53.102;8.456;2023-10-13T04:59:43;20.60;72.10
11387;DHT22;5748;53.102;8.456;2023-10-13T05:02:27;20.60;72.10
11387;DHT22;5748;53.102;8.456;2023-10-13T05:05:14;20.60;71.60
11387;DHT22;5748;53.102;8.456;2023-10-13T05:08:23;20.50;72.30
11387;DHT22;5748;53.102;8.456;2023-10-13T05:11:07;20.60;72.30
11387;DHT22;5748;53.102;8.456;2023-10-13T05:13:52;20.60;72.10
11387;DHT22;5748;53.102;8.456;2023-10-13T05:16:37;20.60;72.40
11387;DHT22;5748;53.102;8.456;2023-10-13T05:19:21;20.60;72.40
11387;DHT22;5748;53.102;8.456;2023-10-13T05:22:06;20.50;72.30
11387;DHT22;5748;53.102;8.456;2023-10-13T05:24:52;20.60;72.50
11387;DHT22;5748;53.102;8.456;2023-10-13T05:27:37;20.60;72.60
11387;DHT22;5748;53.102;8.456;2023-10-13T05:30:22;20.50;72.50
11387;DHT22;5748;53.102;8.456;2023-10-13T05:33:06;20.50;72.50
11387;DHT22;5748;53.102;8.456;2023-10-13T05:35:51;20.50;72.60
11387;DHT22;5748;53.102;8.456;2023-10-13T05:38:35;20.50;72.50
11387;DHT22;5748;53.102;8.456;2023-10-13T05:41:22;20.50;72.50
11387;DHT22;5748;53.102;8.456;2023-10-13T05:44:06;20.50;72.50
11387;DHT22;5748;53.102;8.456;2023-10-13T05:46:51;20.50;72.60
11387;DHT22;5748;53.102;8.456;2023-10-13T05:49:32;20.50;72.60
11387;DHT22;5748;53.102;8.456;2023-10-13T05:52:18;20.50;72.80
11387;DHT22;5748;53.102;8.456;2023-10-13T05:55:03;20.50;72.80
11387;DHT22;5748;53.102;8.456;2023-10-13T05:57:49;20.50;72.90
11387;DHT22;5748;53.102;8.456;2023-10-13T06:00:38;20.50;72.90
11387;DHT22;5748;53.102;8.456;2023-10-13T06:03:24;20.50;73.20
11387;DHT22;5748;53.102;8.456;2023-10-13T06:06:09;20.50;73.00
11387;DHT22;5748;53.102;8.456;2023-10-13T06:08:53;20.60;73.20
11387;DHT22;5748;53.102;8.456;2023-10-13T06:11:52;20.50;73.10
11387;DHT22;5748;53.102;8.456;2023-10-13T06:14:38;20.50;73.10
11387;DHT22;5748;53.102;8.456;2023-10-13T06:17:23;20.50;73.10
11387;DHT22;5748;53.102;8.456;2023-10-13T06:20:08;20.50;73.20
11387;DHT22;5748;53.102;8.456;2023-10-13T06:22:53;20.50;73.30
11387;DHT22;5748;53.102;8.456;2023-10-13T06:25:38;20.50;73.20
11387;DHT22;5748;53.102;8.456;2023-10-13T06:28:22;20.50;73.30
11387;DHT22;5748;53.102;8.456;2023-10-13T06:31:10;20.50;73.30
11387;DHT22;5748;53.102;8.456;2023-10-13T06:33:46;20.60;73.50
11387;DHT22;5748;53.102;8.456;2023-10-13T06:36:13;20.60;73.50
11387;DHT22;5748;53.102;8.456;2023-10-13T06:38:40;20.50;73.20
11387;DHT22;5748;53.102;8.456;2023-10-13T06:41:08;20.50;73.50
11387;DHT22;5748;53.102;8.456;2023-10-13T06:43:45;20.50;73.40
11387;DHT22;5748;53.102;8.456;2023-10-13T06:46:26;20.60;73.60
11387;DHT22;5748;53.102;8.456;2023-10-13T06:48:54;20.60;73.60
11387;DHT22;5748;53.102;8.456;2023-10-13T06:51:25;20.60;73.60
11387;DHT22;5748;53.102;8.456;2023-10-13T06:53:56;20.60;73.40
11387;DHT22;5748;53.102;8.456;2023-10-13T06:56:23;20.50;73.50
11387;DHT22;5748;53.102;8.456;2023-10-13T06:58:54;20.60;73.60
11387;DHT22;5748;53.102;8.456;2023-10-13T07:01:26;20.60;73.60
11387;DHT22;5748;53.102;8.456;2023-10-13T07:03:53;20.60;73.70
11387;DHT22;5748;53.102;8.456;2023-10-13T07:06:26;20.50;73.50
11387;DHT22;5748;53.102;8.456;2023-10-13T07:08:53;20.60;73.60
11387;DHT22;5748;53.102;8.456;2023-10-13T07:11:24;20.50;73.60
11387;DHT22;5748;53.102;8.456;2023-10-13T07:14:00;20.50;73.70
11387;DHT22;5748;53.102;8.456;2023-10-13T07:19:12;20.60;74.00
11387;DHT22;5748;53.102;8.456;2023-10-13T07:21:43;20.60;74.00
11387;DHT22;5748;53.102;8.456;2023-10-13T07:24:11;20.50;73.80
11387;DHT22;5748;53.102;8.456;2023-10-13T07:26:38;20.60;74.00
11387;DHT22;5748;53.102;8.456;2023-10-13T07:29:11;20.50;73.90
11387;DHT22;5748;53.102;8.456;2023-10-13T07:31:39;20.50;73.90
11387;DHT22;5748;53.102;8.456;2023-10-13T07:34:07;20.50;74.10
11387;DHT22;5748;53.102;8.456;2023-10-13T07:36:42;20.50;74.20
11387;DHT22;5748;53.102;8.456;2023-10-13T07:39:09;20.50;73.90
11387;DHT22;5748;53.102;8.456;2023-10-13T07:41:46;20.50;74.10
11387;DHT22;5748;53.102;8.456;2023-10-13T07:44:18;20.50;74.20
11387;DHT22;5748;53.102;8.456;2023-10-13T07:46:52;23.00;76.90
11387;DHT22;5748;53.102;8.456;2023-10-13T07:49:29;20.50;74.60
11387;DHT22;5748;53.102;8.456;2023-10-13T07:51:58;20.50;74.70
11387;DHT22;5748;53.102;8.456;2023-10-13T07:54:42;20.50;74.90
11387;DHT22;5748;53.102;8.456;2023-10-13T07:57:13;20.50;74.60
11387;DHT22;5748;53.102;8.456;2023-10-13T07:59:41;20.50;74.60
11387;DHT22;5748;53.102;8.456;2023-10-13T08:02:17;20.50;74.70
11387;DHT22;5748;53.102;8.456;2023-10-13T08:04:58;20.50;74.90
11387;DHT22;5748;53.102;8.456;2023-10-13T08:07:24;20.50;74.70
11387;DHT22;5748;53.102;8.456;2023-10-13T08:09:53;20.60;75.80
11387;DHT22;5748;53.102;8.456;2023-10-13T08:12:23;20.60;75.10
11387;DHT22;5748;53.102;8.456;2023-10-13T08:14:50;20.60;75.70
11387;DHT22;5748;53.102;8.456;2023-10-13T08:17:36;20.60;75.50
11387;DHT22;5748;53.102;8.456;2023-10-13T08:20:03;20.60;75.70
11387;DHT22;5748;53.102;8.456;2023-10-13T08:22:38;20.70;75.70
11387;DHT22;5748;53.102;8.456;2023-10-13T08:25:05;20.70;75.30
11387;DHT22;5748;53.102;8.456;2023-10-13T08:27:46;20.80;76.00
11387;DHT22;5748;53.102;8.456;2023-10-13T08:30:31;20.90;76.00
11387;DHT22;5748;53.102;8.456;2023-10-13T08:33:09;20.90;75.90
11387;DHT22;5748;53.102;8.456;2023-10-13T08:35:43;21.00;75.90
11387;DHT22;5748;53.102;8.456;2023-10-13T08:38:20;21.00;75.90
11387;DHT22;5748;53.102;8.456;2023-10-13T08:40:57;21.10;76.10
11387;DHT22;5748;53.102;8.456;2023-10-13T08:43:50;21.10;76.00
11387;DHT22;5748;53.102;8.456;2023-10-13T08:46:18;21.20;75.90
11387;DHT22;5748;53.102;8.456;2023-10-13T08:48:57;21.20;75.90
11387;DHT22;5748;53.102;8.456;2023-10-13T08:51:39;21.30;76.00
11387;DHT22;5748;53.102;8.456;2023-10-13T08:54:14;21.30;75.70
11387;DHT22;5748;53.102;8.456;2023-10-13T08:57:00;21.40;75.80
11387;DHT22;5748;53.102;8.456;2023-10-13T08:59:32;21.40;75.40
11387;DHT22;5748;53.102;8.456;2023-10-13T09:02:20;21.40;75.20
11387;DHT22;5748;53.102;8.456;2023-10-13T09:04:49;21.40;75.10
11387;DHT22;5748;53.102;8.456;2023-10-13T09:07:25;21.50;75.20
11387;DHT22;5748;53.102;8.456;2023-10-13T09:09:51;21.40;75.10
11387;DHT22;5748;53.102;8.456;2023-10-13T09:12:57;21.50;75.30
11387;DHT22;5748;53.102;8.456;2023-10-13T09:15:30;21.50;75.20
11387;DHT22;5748;53.102;8.456;2023-10-13T09:18:23;21.50;75.30
11387;DHT22;5748;53.102;8.456;2023-10-13T09:21:09;21.50;75.50
11387;DHT22;5748;53.102;8.456;2023-10-13T09:23:54;21.60;75.40
11387;DHT22;5748;53.102;8.456;2023-10-13T09:26:41;21.60;75.50
11387;DHT22;5748;53.102;8.456;2023-10-13T09:29:14;21.60;75.50
11387;DHT22;5748;53.102;8.456;2023-10-13T09:31:44;21.60;75.80
11387;DHT22;5748;53.102;8.456;2023-10-13T09:34:20;21.70;75.70
11387;DHT22;5748;53.102;8.456;2023-10-13T09:36:50;21.70;76.00
11387;DHT22;5748;53.102;8.456;2023-10-13T09:39:24;21.70;76.00
11387;DHT22;5748;53.102;8.456;2023-10-13T09:42:02;21.80;76.20
11387;DHT22;5748;53.102;8.456;2023-10-13T09:44:36;21.90;76.30
11387;DHT22;5748;53.102;8.456;2023-10-13T09:47:09;21.90;76.30
11387;DHT22;5748;53.102;8.456;2023-10-13T09:49:44;22.00;76.70
11387;DHT22;5748;53.102;8.456;2023-10-13T09:52:14;22.10;77.10
11387;DHT22;5748;53.102;8.456;2023-10-13T09:57:43;22.30;77.60
11387;DHT22;5748;53.102;8.456;2023-10-13T10:00:17;22.50;77.50
11387;DHT22;5748;53.102;8.456;2023-10-13T10:03:12;22.60;77.50
11387;DHT22;5748;53.102;8.456;2023-10-13T10:05:56;22.80;77.50
11387;DHT22;5748;53.102;8.456;2023-10-13T10:08:30;22.90;77.50
11387;DHT22;5748;53.102;8.456;2023-10-13T10:11:23;22.90;77.40
11387;DHT22;5748;53.102;8.456;2023-10-13T10:14:16;23.10;77.40
11387;DHT22;5748;53.102;8.456;2023-10-13T10:16:56;23.20;77.10
11387;DHT22;5748;53.102;8.456;2023-10-13T10:19:29;23.30;76.90
11387;DHT22;5748;53.102;8.456;2023-10-13T10:22:01;23.30;76.90
11387;DHT22;5748;53.102;8.456;2023-10-13T10:24:37;23.40;77.30
11387;DHT22;5748;53.102;8.456;2023-10-13T10:27:04;23.50;77.50
11387;DHT22;5748;53.102;8.456;2023-10-13T10:29:31;23.60;77.90
11387;DHT22;5748;53.102;8.456;2023-10-13T10:31:59;23.70;78.20
11387;DHT22;5748;53.102;8.456;2023-10-13T10:34:32;23.80;78.00
11387;DHT22;5748;53.102;8.456;2023-10-13T10:37:00;24.00;77.80
11387;DHT22;5748;53.102;8.456;2023-10-13T10:39:34;24.10;76.90
11387;DHT22;5748;53.102;8.456;2023-10-13T10:42:12;24.20;76.40
11387;DHT22;5748;53.102;8.456;2023-10-13T10:44:43;24.20;75.90
11387;DHT22;5748;53.102;8.456;2023-10-13T10:47:13;24.20;75.40
11387;DHT22;5748;53.102;8.456;2023-10-13T10:49:45;24.20;75.00
11387;DHT22;5748;53.102;8.456;2023-10-13T10:52:17;24.20;74.60
11387;DHT22;5748;53.102;8.456;2023-10-13T10:54:48;24.10;74.50
11387;DHT22;5748;53.102;8.456;2023-10-13T10:57:26;24.00;74.50
11387;DHT22;5748;53.102;8.456;2023-10-13T10:59:54;23.90;74.60
11387;DHT22;5748;53.102;8.456;2023-10-13T11:02:36;23.90;74.70
11387;DHT22;5748;53.102;8.456;2023-10-13T11:05:04;23.80;74.60
11387;DHT22;5748;53.102;8.456;2023-10-13T11:07:35;28.00;78.30
11387;DHT22;5748;53.102;8.456;2023-10-13T11:10:09;23.80;74.90
11387;DHT22;5748;53.102;8.456;2023-10-13T11:12:55;23.80;75.00
11387;DHT22;5748;53.102;8.456;2023-10-13T11:15:22;23.70;74.40
11387;DHT22;5748;53.102;8.456;2023-10-13T11:17:58;23.70;75.10
11387;DHT22;5748;53.102;8.456;2023-10-13T11:20:25;23.80;75.30
11387;DHT22;5748;53.102;8.456;2023-10-13T11:22:58;23.80;75.50
11387;DHT22;5748;53.102;8.456;2023-10-13T11:25:26;23.80;75.30
11387;DHT22;5748;53.102;8.456;2023-10-13T11:28:11;23.80;75.10
11387;DHT22;5748;53.102;8.456;2023-10-13T11:30:53;23.90;75.20
11387;DHT22;5748;53.102;8.456;2023-10-13T11:33:24;23.90;75.30
11387;DHT22;5748;53.102;8.456;2023-10-13T11:35:54;24.00;75.50
11387;DHT22;5748;53.102;8.456;2023-10-13T11:38:29;24.00;75.30
11387;DHT22;5748;53.102;8.456;2023-10-13T11:41:08;24.10;75.00
11387;DHT22;5748;53.102;8.456;2023-10-13T11:43:40;24.10;74.80
11387;DHT22;5748;53.102;8.456;2023-10-13T11:46:31;24.10;75.00
11387;DHT22;5748;53.102;8.456;2023-10-13T11:49:15;24.20;75.10
11387;DHT22;5748;53.102;8.456;2023-10-13T11:51:45;24.30;75.00
11387;DHT22;5748;53.102;8.456;2023-10-13T11:54:13;24.30;75.00
11387;DHT22;5748;53.102;8.456;2023-10-13T11:56:41;24.40;75.00
11387;DHT22;5748;53.102;8.456;2023-10-13T11:59:09;24.40;75.00
11387;DHT22;5748;53.102;8.456;2023-10-13T12:01:44;24.50;75.10
11387;DHT22;5748;53.102;8.456;2023-10-13T12:04:30;24.60;74.90
11387;DHT22;5748;53.102;8.456;2023-10-13T12:07:00;24.60;74.80
11387;DHT22;5748;53.102;8.456;2023-10-13T12:09:40;24.70;74.90
11387;DHT22;5748;53.102;8.456;2023-10-13T12:12:29;24.80;75.10
11387;DHT22;5748;53.102;8.456;2023-10-13T12:14:58;25.00;74.80
11387;DHT22;5748;53.102;8.456;2023-10-13T12:17:34;25.10;74.60
11387;DHT22;5748;53.102;8.456;2023-10-13T12:20:02;25.20;73.90
11387;DHT22;5748;53.102;8.456;2023-10-13T12:22:30;25.10;73.60
11387;DHT22;5748;53.102;8.456;2023-10-13T12:25:05;25.20;73.30
11387;DHT22;5748;53.102;8.456;2023-10-13T12:27:45;25.20;73.00
11387;DHT22;5748;53.102;8.456;2023-10-13T12:30:15;25.20;73.00
11387;DHT22;5748;53.102;8.456;2023-10-13T12:32:48;25.30;73.10
11387;DHT22;5748;53.102;8.456;2023-10-13T12:35:31;25.30;73.20
11387;DHT22;5748;53.102;8.456;2023-10-13T12:41:57;25.40;73.10
11387;DHT22;5748;53.102;8.456;2023-10-13T12:44:41;25.50;73.40
11387;DHT22;5748;53.102;8.456;2023-10-13T12:47:27;25.60;73.10
11387;DHT22;5748;53.102;8.456;2023-10-13T12:50:12;25.60;72.80
11387;DHT22;5748;53.102;8.456;2023-10-13T12:52:51;25.70;72.60
11387;DHT22;5748;53.102;8.456;2023-10-13T12:55:18;25.70;71.60
11387;DHT22;5748;53.102;8.456;2023-10-13T12:57:50;25.70;72.20
11387;DHT22;5748;53.102;8.456;2023-10-13T13:00:17;25.70;72.00
11387;DHT22;5748;53.102;8.456;2023-10-13T13:02:50;25.70;71.70
11387;DHT22;5748;53.102;8.456;2023-10-13T13:05:21;25.60;70.60
11387;DHT22;5748;53.102;8.456;2023-10-13T13:07:55;25.60;71.30
11387;DHT22;5748;53.102;8.456;2023-10-13T13:10:22;25.50;71.00
11387;DHT22;5748;53.102;8.456;2023-10-13T13:13:01;25.50;71.30
11387;DHT22;5748;53.102;8.456;2023-10-13T13:15:29;25.40;71.10
11387;DHT22;5748;53.102;8.456;2023-10-13T13:17:58;25.30;71.20
11387;DHT22;5748;53.102;8.456;2023-10-13T13:20:35;25.30;71.00
11387;DHT22;5748;53.102;8.456;2023-10-13T13:23:05;25.30;71.00
11387;DHT22;5748;53.102;8.456;2023-10-13T13:25:32;25.20;70.70
11387;DHT22;5748;53.102;8.456;2023-10-13T13:27:59;25.20;71.60
11387;DHT22;5748;53.102;8.456;2023-10-13T13:30:30;25.10;70.50
11387;DHT22;5748;53.102;8.456;2023-10-13T13:33:00;25.10;70.80
11387;DHT22;5748;53.102;8.456;2023-10-13T13:35:35;25.00;71.10
11387;DHT22;5748;53.102;8.456;2023-10-13T13:38:02;25.00;70.60
11387;DHT22;5748;53.102;8.456;2023-10-13T13:40:37;25.00;71.10
11387;DHT22;5748;53.102;8.456;2023-10-13T13:43:04;25.00;71.30
11387;DHT22;5748;53.102;8.456;2023-10-13T13:45:32;25.00;70.10
11387;DHT22;5748;53.102;8.456;2023-10-13T13:48:01;25.00;70.50
11387;DHT22;5748;53.102;8.456;2023-10-13T13:50:33;25.00;70.90
11387;DHT22;5748;53.102;8.456;2023-10-13T13:53:06;25.10;70.80
11387;DHT22;5748;53.102;8.456;2023-10-13T13:55:35;25.10;70.30
11387;DHT22;5748;53.102;8.456;2023-10-13T13:58:05;25.10;70.50
11387;DHT22;5748;53.102;8.456;2023-10-13T14:00:34;25.20;69.70
11387;DHT22;5748;53.102;8.456;2023-10-13T14:03:05;25.20;69.90
11387;DHT22;5748;53.102;8.456;2023-10-13T14:05:40;25.10;69.30
11387;DHT22;5748;53.102;8.456;2023-10-13T14:08:08;25.20;68.60
11387;DHT22;5748;53.102;8.456;2023-10-13T14:10:37;25.20;68.70
11387;DHT22;5748;53.102;8.456;2023-10-13T14:13:18;25.30;69.00
11387;DHT22;5748;53.102;8.456;2023-10-13T14:15:48;25.20;68.80
11387;DHT22;5748;53.102;8.456;2023-10-13T14:18:23;25.30;69.10
11387;DHT22;5748;53.102;8.456;2023-10-13T14:20:55;25.30;67.80
11387;DHT22;5748;53.102;8.456;2023-10-13T14:23:22;25.30;68.10
11387;DHT22;5748;53.102;8.456;2023-10-13T14:25:50;25.30;67.90
11387;DHT22;5748;53.102;8.456;2023-10-13T14:28:17;25.30;68.20
11387;DHT22;5748;53.102;8.456;2023-10-13T14:30:44;25.30;68.40
11387;DHT22;5748;53.102;8.456;2023-10-13T14:33:11;25.30;67.70
11387;DHT22;5748;53.102;8.456;2023-10-13T14:35:39;25.30;66.90
11387;DHT22;5748;53.102;8.456;2023-10-13T14:38:12;25.30;66.20
11387;DHT22;5748;53.102;8.456;2023-10-13T14:40:39;25.30;67.10
11387;DHT22;5748;53.102;8.456;2023-10-13T14:43:06;25.30;66.60
11387;DHT22;5748;53.102;8.456;2023-10-13T14:45:35;25.30;67.20
11387;DHT22;5748;53.102;8.456;2023-10-13T14:48:03;25.30;66.40
11387;DHT22;5748;53.102;8.456;2023-10-13T14:50:33;25.30;66.60
11387;DHT22;5748;53.102;8.456;2023-10-13T14:53:01;25.30;66.50
11387;DHT22;5748;53.102;8.456;2023-10-13T14:55:28;25.30;66.00
11387;DHT22;5748;53.102;8.456;2023-10-13T14:58:03;25.30;66.20
11387;DHT22;5748;53.102;8.456;2023-10-13T15:00:33;25.20;65.80
11387;DHT22;5748;53.102;8.456;2023-10-13T15:03:00;25.20;65.90
11387;DHT22;5748;53.102;8.456;2023-10-13T15:05:28;25.20;66.50
11387;DHT22;5748;53.102;8.456;2023-10-13T15:07:57;25.10;66.50
11387;DHT22;5748;53.102;8.456;2023-10-13T15:10:25;25.10;66.50
11387;DHT22;5748;53.102;8.456;2023-10-13T15:12:52;25.10;66.60
11387;DHT22;5748;53.102;8.456;2023-10-13T15:15:19;25.00;65.80
11387;DHT22;5748;53.102;8.456;2023-10-13T15:17:46;25.00;66.40
11387;DHT22;5748;53.102;8.456;2023-10-13T15:20:13;25.00;67.20
11387;DHT22;5748;53.102;8.456;2023-10-13T15:22:42;25.00;66.60
11387;DHT22;5748;53.102;8.456;2023-10-13T15:25:09;25.00;66.70
11387;DHT22;5748;53.102;8.456;2023-10-13T15:27:47;24.90;66.50
11387;DHT22;5748;53.102;8.456;2023-10-13T15:30:25;24.90;66.70
11387;DHT22;5748;53.102;8.456;2023-10-13T15:32:56;24.80;66.40
11387;DHT22;5748;53.102;8.456;2023-10-13T15:35:23;24.70;66.10
11387;DHT22;5748;53.102;8.456;2023-10-13T15:37:54;24.60;66.60
11387;DHT22;5748;53.102;8.456;2023-10-13T15:40:21;24.60;66.80
11387;DHT22;5748;53.102;8.456;2023-10-13T15:42:50;24.50;66.80
11387;DHT22;5748;53.102;8.456;2023-10-13T15:45:19;24.40;66.50
11387;DHT22;5748;53.102;8.456;2023-10-13T15:47:47;24.40;67.10
11387;DHT22;5748;53.102;8.456;2023-10-13T15:50:15;24.30;67.20
11387;DHT22;5748;53.102;8.456;2023-10-13T15:52:46;24.30;67.40
11387;DHT22;5748;53.102;8.456;2023-10-13T15:55:14;24.20;67.00
11387;DHT22;5748;53.102;8.456;2023-10-13T15:57:43;24.10;67.60
11387;DHT22;5748;53.102;8.456;2023-10-13T16:00:12;24.10;67.80
11387;DHT22;5748;53.102;8.456;2023-10-13T16:02:52;24.00;67.70
11387;DHT22;5748;53.102;8.456;2023-10-13T16:05:22;23.90;68.00
11387;DHT22;5748;53.102;8.456;2023-10-13T16:07:51;23.80;68.30
11387;DHT22;5748;53.102;8.456;2023-10-13T16:10:21;23.70;68.40
11387;DHT22;5748;53.102;8.456;2023-10-13T16:12:48;23.60;68.50
11387;DHT22;5748;53.102;8.456;2023-10-13T16:15:16;23.30;68.90
11387;DHT22;5748;53.102;8.456;2023-10-13T16:17:44;23.30;69.30
11387;DHT22;5748;53.102;8.456;2023-10-13T16:20:11;23.20;69.10
11387;DHT22;5748;53.102;8.456;2023-10-13T16:22:43;23.10;69.10
11387;DHT22;5748;53.102;8.456;2023-10-13T16:25:11;23.00;69.70
11387;DHT22;5748;53.102;8.456;2023-10-13T16:27:39;22.90;70.30
11387;DHT22;5748;53.102;8.456;2023-10-13T16:30:09;22.90;70.30
11387;DHT22;5748;53.102;8.456;2023-10-13T16:32:42;22.80;71.00
11387;DHT22;5748;53.102;8.456;2023-10-13T16:35:12;22.70;70.70
11387;DHT22;5748;53.102;8.456;2023-10-13T16:37:42;23.40;72.00
11387;DHT22;5748;53.102;8.456;2023-10-13T16:40:15;22.60;71.40
11387;DHT22;5748;53.102;8.456;2023-10-13T16:42:44;22.60;71.40